East Atlantic Beach, New York
Current Conditions -  °F | °C
As of 6:51 AM on Friday 24 Oct 2014 (Local Time) from KJFK Reporting Station
Broken Clouds Broken Clouds  
Wind Chill: 52°   Ceiling: 16000
Heat Index: 52°   Visibility: 10mi
Dew Point: 42°   Wind: 12mph
Humidity: 69%   Direction: 300°WNW
Pressure: 29.8"   Gusts: NA
Location:  40.5892°N, 73.6427°W
Report Text: KJFK 241051Z 30010KT 10SM FEW024 SCT040 BKN160 BKN250 11/06 A2980 RMK AO2 SLP092 T01110056 $
Loading
Personal Weather Stations






























Interactive Weather Map
Tropical Storm Tracking
New forecast layout! Learn more

10-Day Weather Forecast

Advertisements
Track Severe Weather on mobile